createdAt,value
2017-02-26T00:00:30.953Z,93.65
2017-02-26T00:01:30.923Z,94.13
2017-02-26T00:02:30.909Z,94.03
2017-02-26T00:03:30.873Z,94.13
2017-02-26T00:04:30.863Z,93.84
2017-02-26T00:05:30.842Z,94.13
2017-02-26T00:06:30.812Z,93.55
2017-02-26T00:07:30.800Z,93.65
2017-02-26T00:08:30.391Z,93.65
2017-02-26T00:09:30.349Z,93.46
2017-02-26T00:10:30.749Z,93.37
2017-02-26T00:11:30.700Z,93.74
2017-02-26T00:12:30.295Z,93.65
2017-02-26T00:13:30.653Z,93.84
2017-02-26T00:14:30.637Z,94.32
2017-02-26T00:15:30.621Z,94.32
2017-02-26T00:16:30.589Z,94.13
2017-02-26T00:17:30.575Z,94.22
2017-02-26T00:18:30.544Z,93.55
2017-02-26T00:19:30.523Z,94.32
2017-02-26T00:20:30.525Z,94.03
2017-02-26T00:21:30.484Z,94.13
2017-02-26T00:22:30.465Z,93.94
2017-02-26T00:23:30.435Z,93.94
2017-02-26T00:24:30.412Z,93.55
2017-02-26T00:25:30.401Z,93.74
2017-02-26T00:26:30.372Z,94.13
2017-02-26T00:27:29.952Z,93.65
2017-02-26T00:28:30.329Z,93.74
2017-02-26T00:29:30.307Z,94.03
2017-02-26T00:30:30.271Z,93.46
2017-02-26T00:31:30.276Z,94.13
2017-02-26T00:32:29.841Z,94.32
2017-02-26T00:33:30.237Z,94.13
2017-02-26T00:34:29.815Z,94.51
2017-02-26T00:35:30.181Z,94.32
2017-02-26T00:36:29.776Z,94.03
2017-02-26T00:37:30.127Z,94.22
2017-02-26T00:38:30.103Z,94.32
2017-02-26T00:39:30.094Z,94.13
2017-02-26T00:40:30.063Z,94.13
2017-02-26T00:41:30.045Z,94.13
2017-02-26T00:42:29.623Z,94.22
2017-02-26T00:43:29.601Z,94.22
2017-02-26T00:44:29.971Z,93.94
2017-02-26T00:45:29.682Z,94.32
2017-02-26T00:46:29.920Z,94.42
2017-02-26T00:47:29.525Z,94.51
2017-02-26T00:48:29.890Z,95.08
2017-02-26T00:49:29.862Z,94.22
2017-02-26T00:50:29.839Z,95.08
2017-02-26T00:51:29.534Z,95.08
2017-02-26T00:52:29.788Z,94.98
2017-02-26T00:53:29.872Z,94.89
2017-02-26T00:54:29.745Z,94.51
2017-02-26T00:55:29.388Z,94.89
2017-02-26T00:56:29.715Z,94.79
2017-02-26T00:57:29.675Z,95.27
2017-02-26T00:58:29.664Z,94.79
2017-02-26T00:59:29.640Z,94.22
2017-02-26T01:00:29.219Z,94.98
2017-02-26T01:01:29.596Z,94.6
2017-02-26T01:02:29.592Z,94.79
2017-02-26T01:03:29.542Z,95.08
2017-02-26T01:04:29.138Z,94.98
2017-02-26T01:05:29.119Z,94.79
2017-02-26T01:06:29.097Z,94.98
2017-02-26T01:07:29.459Z,94.6
2017-02-26T01:08:29.439Z,94.79
2017-02-26T01:09:29.043Z,95.17
2017-02-26T01:10:28.997Z,95.36
2017-02-26T01:11:28.969Z,95.08
2017-02-26T01:12:29.358Z,95.56
2017-02-26T01:13:29.026Z,95.27
2017-02-26T01:14:29.306Z,95.17
2017-02-26T01:15:29.267Z,95.17
2017-02-26T01:16:29.254Z,95.56
2017-02-26T01:17:29.224Z,95.08
2017-02-26T01:18:29.213Z,95.46
2017-02-26T01:19:28.842Z,95.36
2017-02-26T01:20:29.162Z,95.27
2017-02-26T01:21:29.137Z,95.36
2017-02-26T01:22:28.721Z,95.65
2017-02-26T01:23:28.708Z,95.94
2017-02-26T01:24:29.067Z,95.75
2017-02-26T01:25:28.660Z,95.46
2017-02-26T01:26:29.029Z,95.27
2017-02-26T01:27:28.620Z,96.03
2017-02-26T01:28:28.977Z,95.36
2017-02-26T01:29:28.588Z,95.56
2017-02-26T01:30:28.937Z,95.56
2017-02-26T01:31:28.921Z,95.56
2017-02-26T01:32:28.514Z,95.84
2017-02-26T01:33:28.482Z,95.75
2017-02-26T01:34:28.864Z,95.84
2017-02-26T01:35:28.826Z,95.56
2017-02-26T01:36:28.802Z,95.84
2017-02-26T01:37:28.781Z,95.84
2017-02-26T01:38:28.767Z,95.46
2017-02-26T01:39:28.362Z,96.22
2017-02-26T01:40:28.332Z,95.94
2017-02-26T01:41:28.693Z,96.22
2017-02-26T01:42:28.669Z,96.51
2017-02-26T01:43:28.279Z,96.6
2017-02-26T01:44:28.640Z,97.08
2017-02-26T01:45:28.219Z,97.55
2017-02-26T01:46:28.578Z,97.93
2017-02-26T01:47:28.557Z,97.55
2017-02-26T01:48:28.141Z,97.74
2017-02-26T01:49:28.125Z,97.65
2017-02-26T01:50:28.487Z,97.74
2017-02-26T01:51:28.465Z,97.55
2017-02-26T01:52:28.446Z,97.46
2017-02-26T01:53:28.432Z,97.93
2017-02-26T01:54:28.393Z,98.41
2017-02-26T01:55:28.384Z,98.32
2017-02-26T01:56:28.362Z,98.13
2017-02-26T01:57:28.338Z,98.55
2017-02-26T01:58:28.312Z,98.55
2017-02-26T01:59:27.912Z,98.36
2017-02-26T02:00:28.270Z,98.46
2017-02-26T02:01:28.243Z,98.83
2017-02-26T02:02:28.219Z,98.65
2017-02-26T02:03:28.201Z,98.79
2017-02-26T02:04:28.171Z,98.98
2017-02-26T02:05:28.158Z,99.08
2017-02-26T02:06:28.139Z,98.79
2017-02-26T02:07:28.117Z,98.22
2017-02-26T02:08:28.076Z,98.69
2017-02-26T02:09:28.055Z,98.6
2017-02-26T02:10:28.056Z,98.6
2017-02-26T02:11:28.014Z,98.6
2017-02-26T02:12:27.605Z,98.41
2017-02-26T02:13:27.979Z,98.79
2017-02-26T02:14:27.951Z,98.88
2017-02-26T02:15:27.543Z,99.17
2017-02-26T02:16:27.903Z,98.79
2017-02-26T02:17:27.892Z,98.79
2017-02-26T02:18:27.863Z,98.88
2017-02-26T02:19:27.446Z,99.27
2017-02-26T02:20:27.820Z,99.36
2017-02-26T02:21:27.790Z,99.65
2017-02-26T02:22:27.379Z,99.46
2017-02-26T02:23:27.354Z,99.55
2017-02-26T02:24:27.348Z,99.36
2017-02-26T02:25:27.721Z,99.36
2017-02-26T02:26:27.288Z,99.36
2017-02-26T02:27:27.666Z,99.27
2017-02-26T02:28:27.258Z,99.27
2017-02-26T02:29:27.614Z,99.36
2017-02-26T02:30:27.274Z,99.74
2017-02-26T02:31:27.625Z,99.84
2017-02-26T02:32:27.561Z,99.46
2017-02-26T02:33:27.571Z,99.93
2017-02-26T02:34:27.543Z,99.99
2017-02-26T02:35:27.540Z,99.99
2017-02-26T02:36:27.114Z,99.99
2017-02-26T02:37:27.452Z,99.99
2017-02-26T02:38:27.429Z,99.99
2017-02-26T02:39:27.397Z,99.99
2017-02-26T02:40:27.003Z,99.99
2017-02-26T02:41:27.405Z,99.99
2017-02-26T02:42:27.373Z,99.99
2017-02-26T02:43:26.930Z,99.99
2017-02-26T02:44:27.289Z,99.99
2017-02-26T02:45:27.268Z,99.99
2017-02-26T02:46:27.244Z,99.99
2017-02-26T02:47:27.256Z,99.99
2017-02-26T02:48:26.796Z,99.99
2017-02-26T02:49:27.182Z,99.99
2017-02-26T02:50:27.144Z,99.99
2017-02-26T02:51:27.178Z,99.99
2017-02-26T02:52:26.723Z,99.99
2017-02-26T02:53:27.077Z,99.99
2017-02-26T02:54:27.071Z,99.99
2017-02-26T02:55:27.052Z,99.99
2017-02-26T02:56:26.623Z,99.99
2017-02-26T02:57:26.984Z,99.99
2017-02-26T02:58:26.580Z,99.99
2017-02-26T02:59:26.992Z,99.99
2017-02-26T03:00:26.529Z,99.99
2017-02-26T03:01:26.907Z,99.99
2017-02-26T03:02:26.869Z,99.99
2017-02-26T03:03:26.898Z,99.99
2017-02-26T03:04:26.828Z,99.99
2017-02-26T03:05:26.415Z,99.99
2017-02-26T03:06:26.786Z,99.99
2017-02-26T03:07:26.393Z,99.99
2017-02-26T03:08:26.746Z,99.99
2017-02-26T03:09:26.715Z,99.99
2017-02-26T03:10:26.694Z,99.99
2017-02-26T03:11:26.667Z,99.99
2017-02-26T03:12:26.653Z,99.99
2017-02-26T03:13:26.633Z,99.99
2017-02-26T03:14:26.601Z,99.99
2017-02-26T03:15:26.188Z,99.99
2017-02-26T03:16:26.187Z,99.99
2017-02-26T03:17:26.150Z,99.99
2017-02-26T03:18:26.519Z,99.99
2017-02-26T03:19:26.491Z,99.99
2017-02-26T03:20:26.078Z,99.99
2017-02-26T03:21:26.437Z,99.99
2017-02-26T03:22:26.430Z,99.99
2017-02-26T03:23:26.010Z,99.99
2017-02-26T03:24:26.377Z,99.99
2017-02-26T03:25:26.357Z,99.99
2017-02-26T03:26:25.938Z,99.99
2017-02-26T03:27:25.916Z,99.99
2017-02-26T03:28:26.301Z,99.99
2017-02-26T03:29:26.263Z,99.99
2017-02-26T03:30:25.844Z,99.99
2017-02-26T03:31:26.223Z,99.99
2017-02-26T03:32:26.205Z,99.99
2017-02-26T03:33:26.172Z,99.99
2017-02-26T03:34:26.140Z,99.99
2017-02-26T03:35:25.753Z,99.98
2017-02-26T03:36:25.728Z,99.99
2017-02-26T03:37:26.080Z,99.99
2017-02-26T03:38:25.670Z,99.99
2017-02-26T03:39:25.649Z,99.99
2017-02-26T03:40:26.028Z,99.98
2017-02-26T03:41:25.999Z,99.99
2017-02-26T03:42:25.967Z,99.88
2017-02-26T03:43:25.558Z,99.69
2017-02-26T03:44:25.531Z,99.99
2017-02-26T03:45:25.515Z,99.99
2017-02-26T03:46:25.572Z,99.99
2017-02-26T03:47:25.855Z,99.88
2017-02-26T03:48:25.843Z,99.99
2017-02-26T03:49:25.809Z,99.99
2017-02-26T03:50:25.463Z,99.99
2017-02-26T03:51:25.372Z,99.99
2017-02-26T03:52:25.742Z,99.99
2017-02-26T03:53:25.741Z,99.99
2017-02-26T03:54:25.705Z,99.6
2017-02-26T03:55:25.676Z,99.88
2017-02-26T03:56:25.660Z,99.84
2017-02-26T03:57:25.236Z,99.31
2017-02-26T03:58:25.609Z,99.41
2017-02-26T03:59:25.205Z,99.69
2017-02-26T04:00:25.178Z,99.79
2017-02-26T04:01:25.537Z,99.69
2017-02-26T04:02:25.518Z,99.5
2017-02-26T04:03:25.499Z,99.88
2017-02-26T04:04:25.481Z,99.6
2017-02-26T04:05:25.459Z,99.5
2017-02-26T04:06:25.154Z,99.69
2017-02-26T04:07:25.017Z,99.69
2017-02-26T04:08:25.385Z,99.5
2017-02-26T04:09:24.967Z,99.69
2017-02-26T04:10:25.352Z,99.65
2017-02-26T04:11:24.935Z,99.6
2017-02-26T04:12:25.292Z,99.98
2017-02-26T04:13:24.882Z,99.99
2017-02-26T04:14:24.862Z,99.99
2017-02-26T04:15:24.832Z,99.99
2017-02-26T04:16:25.200Z,99.69
2017-02-26T04:17:25.171Z,99.69
2017-02-26T04:18:25.160Z,99.6
2017-02-26T04:19:25.138Z,99.69
2017-02-26T04:20:25.129Z,99.99
2017-02-26T04:21:24.698Z,99.99
2017-02-26T04:22:25.074Z,99.88
2017-02-26T04:23:25.047Z,99.5
2017-02-26T04:24:25.021Z,99.79
2017-02-26T04:25:25.013Z,99.5
2017-02-26T04:26:24.589Z,99.6
2017-02-26T04:27:24.575Z,99.74
2017-02-26T04:28:24.555Z,99.12
2017-02-26T04:29:24.903Z,99.36
2017-02-26T04:30:24.893Z,99.6
2017-02-26T04:31:24.477Z,99.41
2017-02-26T04:32:24.842Z,99.5
2017-02-26T04:33:24.432Z,99.69
2017-02-26T04:34:24.410Z,99.5
2017-02-26T04:35:24.770Z,99.88
2017-02-26T04:36:24.770Z,99.6
2017-02-26T04:37:24.741Z,99.5
2017-02-26T04:38:24.709Z,99.41
2017-02-26T04:39:24.315Z,99.41
2017-02-26T04:40:24.271Z,99.31
2017-02-26T04:41:24.248Z,99.27
2017-02-26T04:42:24.621Z,99.31
2017-02-26T04:43:24.217Z,99.12
2017-02-26T04:44:24.196Z,99.31
2017-02-26T04:45:24.556Z,99.31
2017-02-26T04:46:24.145Z,99.6
2017-02-26T04:47:24.124Z,99.88
2017-02-26T04:48:24.493Z,99.5
2017-02-26T04:49:24.455Z,99.27
2017-02-26T04:50:24.054Z,99.22
2017-02-26T04:51:24.466Z,99.02
2017-02-26T04:52:24.004Z,99.17
2017-02-26T04:53:24.362Z,99.6
2017-02-26T04:54:24.351Z,99.08
2017-02-26T04:55:24.331Z,99.17
2017-02-26T04:56:23.910Z,98.98
2017-02-26T04:57:24.273Z,98.79
2017-02-26T04:58:24.257Z,99.12
2017-02-26T04:59:23.859Z,99.17
2017-02-26T05:00:24.213Z,99.5
2017-02-26T05:01:24.197Z,99.02
2017-02-26T05:02:23.803Z,99.6
2017-02-26T05:03:24.207Z,99.69
2017-02-26T05:04:23.730Z,99.6
2017-02-26T05:05:23.716Z,99.5
2017-02-26T05:06:24.086Z,99.5
2017-02-26T05:07:23.684Z,99.5
2017-02-26T05:08:23.653Z,99.5
2017-02-26T05:09:24.024Z,99.69
2017-02-26T05:10:24.002Z,99.99
2017-02-26T05:11:23.632Z,99.99
2017-02-26T05:12:23.953Z,99.99
2017-02-26T05:13:24.014Z,99.99
2017-02-26T05:14:23.531Z,99.99
2017-02-26T05:15:23.543Z,99.99
2017-02-26T05:16:23.852Z,99.99
2017-02-26T05:17:23.545Z,99.99
2017-02-26T05:18:23.813Z,99.99
2017-02-26T05:19:23.852Z,99.99
2017-02-26T05:20:23.786Z,99.99
2017-02-26T05:21:23.748Z,99.99
2017-02-26T05:22:23.740Z,99.99
2017-02-26T05:23:23.706Z,99.99
2017-02-26T05:24:23.676Z,99.99
2017-02-26T05:25:23.292Z,99.99
2017-02-26T05:26:23.646Z,99.99
2017-02-26T05:27:23.612Z,99.98
2017-02-26T05:28:23.607Z,99.99
2017-02-26T05:29:23.564Z,99.88
2017-02-26T05:30:23.583Z,99.99
2017-02-26T05:31:23.191Z,99.99
2017-02-26T05:32:23.106Z,99.99
2017-02-26T05:33:23.092Z,99.99
2017-02-26T05:34:23.503Z,99.84
2017-02-26T05:35:23.156Z,99.69
2017-02-26T05:36:23.460Z,99.99
2017-02-26T05:37:22.997Z,99.93
2017-02-26T05:38:23.459Z,99.74
2017-02-26T05:39:23.348Z,99.79
2017-02-26T05:40:22.936Z,99.46
2017-02-26T05:41:23.420Z,99.74
2017-02-26T05:42:22.878Z,99.46
2017-02-26T05:43:23.257Z,99.46
2017-02-26T05:44:22.847Z,99.46
2017-02-26T05:45:23.205Z,99.36
2017-02-26T05:46:23.196Z,99.17
2017-02-26T05:47:22.764Z,99.27
2017-02-26T05:48:23.145Z,99.55
2017-02-26T05:49:22.724Z,99.36
2017-02-26T05:50:22.703Z,99.88
2017-02-26T05:51:22.682Z,99.93
2017-02-26T05:52:23.122Z,99.36
2017-02-26T05:53:23.022Z,98.98
2017-02-26T05:54:22.670Z,99.27
2017-02-26T05:55:22.981Z,98.5
2017-02-26T05:56:22.971Z,99.36
2017-02-26T05:57:22.543Z,99.17
2017-02-26T05:58:22.981Z,98.88
2017-02-26T05:59:22.519Z,99.46
2017-02-26T06:00:22.478Z,99.93
2017-02-26T06:01:22.848Z,99.55
2017-02-26T06:02:22.826Z,99.55
2017-02-26T06:03:22.804Z,99.93
2017-02-26T06:04:22.393Z,99.74
2017-02-26T06:05:22.756Z,99.74
2017-02-26T06:06:22.341Z,99.93
2017-02-26T06:07:22.723Z,99.99
2017-02-26T06:08:22.694Z,99.99
2017-02-26T06:09:22.284Z,99.99
2017-02-26T06:10:22.666Z,99.99
2017-02-26T06:11:22.234Z,99.99
2017-02-26T06:12:22.218Z,99.99
2017-02-26T06:13:22.190Z,99.99
2017-02-26T06:14:22.561Z,99.99
2017-02-26T06:15:22.147Z,99.99
2017-02-26T06:16:22.507Z,99.99
2017-02-26T06:17:22.479Z,99.99
2017-02-26T06:18:22.093Z,99.99
2017-02-26T06:19:22.057Z,99.99
2017-02-26T06:20:22.037Z,99.99
2017-02-26T06:21:22.404Z,99.99
2017-02-26T06:22:22.381Z,99.99
2017-02-26T06:23:22.348Z,99.99
2017-02-26T06:24:22.333Z,99.99
2017-02-26T06:25:22.325Z,99.99
2017-02-26T06:26:22.295Z,99.99
2017-02-26T06:27:21.877Z,99.99
2017-02-26T06:28:21.860Z,99.99
2017-02-26T06:29:22.224Z,99.99
2017-02-26T06:30:22.201Z,99.99
2017-02-26T06:31:21.782Z,99.99
2017-02-26T06:32:22.159Z,99.99
2017-02-26T06:33:22.130Z,99.99
2017-02-26T06:34:22.120Z,99.99
2017-02-26T06:35:22.096Z,99.99
2017-02-26T06:36:22.091Z,99.99
2017-02-26T06:37:22.044Z,99.99
2017-02-26T06:38:22.023Z,99.99
2017-02-26T06:39:22.011Z,99.99
2017-02-26T06:40:21.586Z,99.99
2017-02-26T06:41:21.947Z,99.99
2017-02-26T06:42:21.928Z,99.99
2017-02-26T06:43:21.917Z,99.99
2017-02-26T06:44:21.886Z,99.99
2017-02-26T06:45:21.865Z,99.99
2017-02-26T06:46:21.856Z,99.99
2017-02-26T06:47:21.813Z,99.99
2017-02-26T06:48:21.802Z,99.99
2017-02-26T06:49:21.390Z,99.99
2017-02-26T06:50:21.751Z,99.99
2017-02-26T06:51:21.732Z,99.99
2017-02-26T06:52:21.711Z,99.99
2017-02-26T06:53:21.690Z,99.99
2017-02-26T06:54:21.275Z,99.99
2017-02-26T06:55:21.252Z,99.99
2017-02-26T06:56:21.620Z,99.99
2017-02-26T06:57:21.209Z,99.99
2017-02-26T06:58:21.578Z,99.99
2017-02-26T06:59:21.167Z,99.99
2017-02-26T07:00:21.527Z,99.99
2017-02-26T07:01:21.509Z,99.99
2017-02-26T07:02:21.105Z,99.99
2017-02-26T07:03:21.071Z,99.99
2017-02-26T07:04:21.445Z,99.99
2017-02-26T07:05:21.410Z,99.99
2017-02-26T07:06:20.998Z,99.99
2017-02-26T07:07:20.987Z,99.99
2017-02-26T07:08:20.965Z,99.99
2017-02-26T07:09:21.333Z,99.99
2017-02-26T07:10:21.301Z,99.99
2017-02-26T07:11:20.891Z,99.99
2017-02-26T07:12:20.880Z,99.99
2017-02-26T07:13:21.250Z,99.99
2017-02-26T07:14:20.840Z,99.99
2017-02-26T07:15:20.802Z,99.99
2017-02-26T07:16:20.790Z,99.99
2017-02-26T07:17:21.177Z,99.99
2017-02-26T07:18:20.737Z,99.99
2017-02-26T07:19:21.122Z,99.99
2017-02-26T07:20:21.086Z,99.99
2017-02-26T07:21:21.067Z,99.99
2017-02-26T07:22:20.656Z,99.99
2017-02-26T07:23:20.645Z,99.99
2017-02-26T07:24:20.996Z,99.99
2017-02-26T07:25:20.981Z,99.99
2017-02-26T07:26:20.953Z,99.99
2017-02-26T07:27:20.933Z,99.99
2017-02-26T07:28:20.533Z,99.99
2017-02-26T07:29:20.882Z,99.99
2017-02-26T07:30:20.872Z,99.99
2017-02-26T07:31:20.461Z,99.99
2017-02-26T07:32:20.832Z,99.99
2017-02-26T07:33:20.800Z,99.99
2017-02-26T07:34:20.769Z,99.99
2017-02-26T07:35:20.748Z,99.99
2017-02-26T07:36:20.728Z,99.99
2017-02-26T07:37:20.363Z,99.99
2017-02-26T07:38:20.302Z,99.99
2017-02-26T07:39:20.660Z,99.99
2017-02-26T07:40:20.656Z,99.99
2017-02-26T07:41:20.635Z,99.99
2017-02-26T07:42:20.221Z,99.99
2017-02-26T07:43:20.574Z,99.99
2017-02-26T07:44:20.574Z,99.99
2017-02-26T07:45:20.542Z,99.99
2017-02-26T07:46:20.513Z,99.99
2017-02-26T07:47:20.136Z,99.99
2017-02-26T07:48:20.462Z,99.99
2017-02-26T07:49:20.441Z,99.99
2017-02-26T07:50:20.411Z,99.99
2017-02-26T07:51:20.016Z,99.99
2017-02-26T07:52:20.400Z,99.99
2017-02-26T07:53:19.961Z,99.99
2017-02-26T07:54:20.329Z,99.99
2017-02-26T07:55:19.930Z,99.99
2017-02-26T07:56:20.349Z,99.99
2017-02-26T07:57:20.267Z,99.99
2017-02-26T07:58:19.877Z,99.99
2017-02-26T07:59:19.837Z,99.99
2017-02-26T08:00:20.211Z,99.99
2017-02-26T08:01:20.179Z,99.99
2017-02-26T08:02:19.772Z,99.99
2017-02-26T08:03:19.745Z,99.99
2017-02-26T08:04:19.806Z,99.99
2017-02-26T08:05:19.703Z,99.99
2017-02-26T08:06:20.147Z,99.99
2017-02-26T08:07:20.054Z,99.99
2017-02-26T08:08:20.100Z,99.99
2017-02-26T08:09:19.612Z,99.99
2017-02-26T08:10:19.658Z,99.99
2017-02-26T08:11:19.964Z,99.99
2017-02-26T08:12:20.244Z,99.99
2017-02-26T08:13:19.529Z,99.99
2017-02-26T08:14:19.920Z,99.99
2017-02-26T08:15:19.867Z,99.99
2017-02-26T08:16:19.869Z,99.99
2017-02-26T08:17:19.826Z,99.99
2017-02-26T08:18:19.893Z,99.99
2017-02-26T08:19:19.387Z,99.99
2017-02-26T08:20:19.887Z,99.99
2017-02-26T08:21:19.354Z,99.99
2017-02-26T08:22:19.772Z,99.99
2017-02-26T08:23:19.852Z,99.99
2017-02-26T08:24:19.686Z,99.99
2017-02-26T08:25:19.264Z,99.99
2017-02-26T08:26:19.641Z,99.99
2017-02-26T08:27:19.702Z,99.99
2017-02-26T08:28:19.600Z,99.99
2017-02-26T08:29:19.611Z,99.99
2017-02-26T08:30:19.541Z,99.99
2017-02-26T08:31:19.140Z,99.99
2017-02-26T08:32:19.129Z,99.99
2017-02-26T08:33:19.543Z,99.99
2017-02-26T08:34:19.550Z,99.99
2017-02-26T08:35:19.469Z,99.99
2017-02-26T08:36:19.450Z,99.99
2017-02-26T08:37:19.398Z,99.99
2017-02-26T08:38:19.498Z,99.99
2017-02-26T08:39:18.953Z,99.99
2017-02-26T08:40:19.335Z,99.99
2017-02-26T08:41:19.365Z,99.99
2017-02-26T08:42:18.914Z,99.99
2017-02-26T08:43:18.874Z,99.99
2017-02-26T08:44:18.843Z,99.99
2017-02-26T08:45:19.223Z,99.99
2017-02-26T08:46:18.798Z,99.99
2017-02-26T08:47:19.177Z,99.99
2017-02-26T08:48:19.151Z,99.99
2017-02-26T08:49:18.743Z,99.99
2017-02-26T08:50:19.101Z,99.99
2017-02-26T08:51:19.092Z,99.99
2017-02-26T08:52:19.058Z,99.99
2017-02-26T08:53:19.038Z,99.99
2017-02-26T08:54:19.030Z,99.99
2017-02-26T08:55:18.616Z,99.99
2017-02-26T08:56:18.986Z,99.99
2017-02-26T08:57:18.970Z,99.99
2017-02-26T08:58:18.545Z,99.99
2017-02-26T08:59:18.913Z,99.99
2017-02-26T09:00:18.491Z,99.99
2017-02-26T09:01:18.866Z,99.99
2017-02-26T09:02:18.856Z,99.99
2017-02-26T09:03:18.445Z,99.99
2017-02-26T09:04:18.803Z,99.99
2017-02-26T09:05:18.780Z,99.99
2017-02-26T09:06:18.763Z,99.99
2017-02-26T09:07:18.740Z,99.99
2017-02-26T09:08:18.319Z,99.99
2017-02-26T09:09:18.712Z,99.99
2017-02-26T09:10:18.291Z,99.99
2017-02-26T09:11:18.270Z,99.99
2017-02-26T09:12:18.629Z,99.99
2017-02-26T09:13:18.596Z,99.99
2017-02-26T09:14:18.598Z,99.99
2017-02-26T09:15:18.579Z,99.99
2017-02-26T09:16:18.547Z,99.99
2017-02-26T09:17:18.535Z,99.99
2017-02-26T09:18:18.517Z,99.99
2017-02-26T09:19:18.495Z,99.99
2017-02-26T09:20:18.456Z,99.99
2017-02-26T09:21:18.065Z,99.99
2017-02-26T09:22:18.435Z,99.99
2017-02-26T09:23:18.001Z,99.99
2017-02-26T09:24:18.385Z,99.99
2017-02-26T09:25:18.361Z,99.99
2017-02-26T09:26:18.342Z,99.99
2017-02-26T09:27:18.322Z,99.99
2017-02-26T09:28:18.281Z,99.99
2017-02-26T09:29:18.259Z,99.99
2017-02-26T09:30:18.241Z,99.99
2017-02-26T09:31:18.235Z,99.99
2017-02-26T09:32:18.214Z,99.99
2017-02-26T09:33:18.177Z,99.99
2017-02-26T09:34:18.156Z,99.99
2017-02-26T09:35:17.753Z,99.99
2017-02-26T09:36:18.121Z,99.99
2017-02-26T09:37:18.097Z,99.99
2017-02-26T09:38:17.697Z,99.99
2017-02-26T09:39:17.665Z,99.99
2017-02-26T09:40:18.032Z,99.99
2017-02-26T09:41:18.016Z,99.99
2017-02-26T09:42:17.985Z,99.99
2017-02-26T09:43:17.984Z,99.99
2017-02-26T09:44:17.944Z,99.99
2017-02-26T09:45:17.928Z,99.99
2017-02-26T09:46:17.901Z,99.99
2017-02-26T09:47:17.501Z,99.99
2017-02-26T09:48:17.861Z,99.99
2017-02-26T09:49:17.848Z,99.99
2017-02-26T09:50:17.821Z,99.99
2017-02-26T09:51:17.795Z,99.99
2017-02-26T09:52:17.790Z,99.99
2017-02-26T09:53:17.747Z,99.99
2017-02-26T09:54:17.740Z,99.99
2017-02-26T09:55:17.325Z,99.99
2017-02-26T09:56:17.683Z,99.99
2017-02-26T09:57:17.677Z,99.99
2017-02-26T09:58:17.646Z,99.99
2017-02-26T09:59:17.636Z,99.99
2017-02-26T10:00:17.224Z,99.99
2017-02-26T10:01:17.586Z,99.99
2017-02-26T10:02:17.556Z,99.99
2017-02-26T10:03:17.153Z,99.99
2017-02-26T10:04:17.521Z,99.99
2017-02-26T10:05:17.499Z,99.99
2017-02-26T10:06:17.113Z,99.99
2017-02-26T10:07:17.458Z,99.99
2017-02-26T10:08:17.060Z,99.99
2017-02-26T10:09:17.020Z,99.99
2017-02-26T10:10:17.380Z,99.99
2017-02-26T10:11:16.982Z,99.99
2017-02-26T10:12:17.348Z,99.99
2017-02-26T10:13:17.353Z,99.99
2017-02-26T10:14:17.325Z,99.99
2017-02-26T10:15:16.888Z,99.99
2017-02-26T10:16:17.258Z,99.99
2017-02-26T10:17:17.227Z,99.99
2017-02-26T10:18:17.230Z,99.99
2017-02-26T10:19:16.818Z,99.99
2017-02-26T10:20:17.175Z,99.99
2017-02-26T10:21:17.145Z,99.99
2017-02-26T10:22:16.737Z,99.99
2017-02-26T10:23:17.104Z,99.99
2017-02-26T10:24:17.092Z,99.99
2017-02-26T10:25:17.081Z,99.99
2017-02-26T10:26:16.662Z,99.99
2017-02-26T10:27:17.026Z,99.99
2017-02-26T10:28:17.023Z,99.99
2017-02-26T10:29:16.601Z,99.99
2017-02-26T10:30:16.567Z,99.99
2017-02-26T10:31:16.941Z,99.99
2017-02-26T10:32:16.918Z,99.99
2017-02-26T10:33:16.899Z,99.99
2017-02-26T10:34:16.492Z,99.99
2017-02-26T10:35:16.868Z,99.99
2017-02-26T10:36:16.853Z,99.99
2017-02-26T10:37:16.426Z,99.99
2017-02-26T10:38:16.798Z,99.99
2017-02-26T10:39:16.764Z,99.99
2017-02-26T10:40:16.746Z,99.99
2017-02-26T10:41:16.714Z,99.99
2017-02-26T10:42:16.703Z,99.99
2017-02-26T10:43:16.694Z,99.99
2017-02-26T10:44:16.656Z,99.99
2017-02-26T10:45:16.634Z,99.99
2017-02-26T10:46:16.621Z,99.99
2017-02-26T10:47:16.592Z,99.99
2017-02-26T10:48:16.570Z,99.99
2017-02-26T10:49:16.164Z,99.99
2017-02-26T10:50:16.540Z,99.99
2017-02-26T10:51:16.527Z,99.99
2017-02-26T10:52:16.487Z,99.99
2017-02-26T10:53:16.080Z,99.99
2017-02-26T10:54:16.449Z,99.99
2017-02-26T10:55:16.048Z,99.99
2017-02-26T10:56:16.031Z,99.99
2017-02-26T10:57:16.092Z,99.99
2017-02-26T10:58:15.975Z,99.99
2017-02-26T10:59:16.356Z,99.99
2017-02-26T11:00:16.316Z,99.99
2017-02-26T11:01:16.324Z,99.99
2017-02-26T11:02:15.891Z,99.99
2017-02-26T11:03:16.263Z,99.99
2017-02-26T11:04:16.224Z,99.99
2017-02-26T11:05:15.873Z,99.99
2017-02-26T11:06:16.182Z,99.99
2017-02-26T11:07:16.172Z,99.99
2017-02-26T11:08:16.160Z,99.99
2017-02-26T11:09:16.181Z,99.99
2017-02-26T11:10:16.120Z,99.99
2017-02-26T11:11:16.199Z,99.99
2017-02-26T11:12:16.111Z,99.99
2017-02-26T11:13:15.758Z,99.99
2017-02-26T11:14:15.623Z,99.99
2017-02-26T11:15:15.997Z,99.99
2017-02-26T11:16:15.982Z,99.99
2017-02-26T11:17:16.037Z,99.99
2017-02-26T11:18:15.556Z,99.99
2017-02-26T11:19:15.597Z,99.99
2017-02-26T11:20:15.955Z,99.99
2017-02-26T11:21:15.919Z,99.99
2017-02-26T11:22:15.846Z,99.99
2017-02-26T11:23:15.474Z,99.99
2017-02-26T11:24:15.803Z,99.99
2017-02-26T11:25:15.794Z,99.99
2017-02-26T11:26:15.431Z,99.99
2017-02-26T11:27:15.812Z,99.99
2017-02-26T11:28:15.723Z,99.99
2017-02-26T11:29:15.398Z,99.99
2017-02-26T11:30:15.299Z,99.99
2017-02-26T11:31:15.269Z,99.99
2017-02-26T11:32:15.689Z,99.99
2017-02-26T11:33:15.258Z,99.99
2017-02-26T11:34:15.630Z,99.99
2017-02-26T11:35:15.588Z,99.99
2017-02-26T11:36:15.175Z,99.99
2017-02-26T11:37:15.149Z,99.99
2017-02-26T11:38:15.126Z,99.99
2017-02-26T11:39:15.497Z,99.99
2017-02-26T11:40:15.526Z,99.99
2017-02-26T11:41:15.451Z,99.99
2017-02-26T11:42:15.466Z,99.99
2017-02-26T11:43:15.414Z,99.99
2017-02-26T11:44:15.434Z,99.99
2017-02-26T11:45:15.356Z,99.99
2017-02-26T11:46:15.353Z,99.99
2017-02-26T11:47:15.311Z,99.99
2017-02-26T11:48:15.293Z,99.99
2017-02-26T11:49:15.292Z,99.99
2017-02-26T11:50:15.309Z,99.99
2017-02-26T11:51:15.249Z,99.99
2017-02-26T11:52:15.290Z,99.99
2017-02-26T11:53:15.188Z,99.99
2017-02-26T11:54:15.185Z,99.99
2017-02-26T11:55:15.163Z,99.99
2017-02-26T11:56:15.127Z,99.99
2017-02-26T11:57:15.108Z,99.99
2017-02-26T11:58:14.689Z,99.99
2017-02-26T11:59:15.065Z,99.99
2017-02-26T12:00:14.644Z,99.99
2017-02-26T12:01:15.004Z,99.99
2017-02-26T12:02:15.025Z,99.99
2017-02-26T12:03:15.008Z,99.99
2017-02-26T12:04:14.953Z,99.99
2017-02-26T12:05:14.541Z,99.99
2017-02-26T12:06:14.529Z,99.99
2017-02-26T12:07:14.881Z,99.99
2017-02-26T12:08:14.871Z,99.99
2017-02-26T12:09:14.839Z,99.99
2017-02-26T12:10:14.429Z,99.99
2017-02-26T12:11:14.812Z,99.99
2017-02-26T12:12:14.769Z,99.99
2017-02-26T12:13:14.759Z,99.99
2017-02-26T12:14:14.348Z,99.99
2017-02-26T12:15:14.333Z,99.99
2017-02-26T12:16:14.306Z,99.99
2017-02-26T12:17:14.285Z,99.99
2017-02-26T12:18:14.276Z,99.99
2017-02-26T12:19:14.623Z,99.99
2017-02-26T12:20:14.602Z,99.99
2017-02-26T12:21:14.215Z,99.99
2017-02-26T12:22:14.573Z,99.99
2017-02-26T12:23:14.154Z,99.99
2017-02-26T12:24:14.522Z,99.99
2017-02-26T12:25:14.514Z,99.99
2017-02-26T12:26:14.490Z,99.99
2017-02-26T12:27:14.068Z,99.99
2017-02-26T12:28:14.050Z,99.99
2017-02-26T12:29:14.419Z,99.99
2017-02-26T12:30:14.019Z,99.99
2017-02-26T12:31:14.377Z,99.99
2017-02-26T12:32:14.349Z,99.99
2017-02-26T12:33:14.336Z,99.99
2017-02-26T12:34:14.317Z,99.99
2017-02-26T12:35:13.998Z,99.99
2017-02-26T12:36:14.265Z,99.99
2017-02-26T12:37:13.871Z,99.99
2017-02-26T12:38:14.234Z,99.99
2017-02-26T12:39:14.213Z,99.99
2017-02-26T12:40:13.805Z,99.99
2017-02-26T12:41:13.839Z,99.99
2017-02-26T12:42:14.144Z,99.99
2017-02-26T12:43:14.123Z,99.99
2017-02-26T12:44:14.101Z,99.99
2017-02-26T12:45:14.070Z,99.99
2017-02-26T12:46:14.076Z,99.99
2017-02-26T12:47:13.730Z,99.99
2017-02-26T12:48:13.620Z,99.99
2017-02-26T12:49:13.999Z,99.99
2017-02-26T12:50:13.580Z,99.99
2017-02-26T12:51:13.964Z,99.99
2017-02-26T12:52:13.934Z,99.99
2017-02-26T12:53:13.909Z,99.99